TimeAST,TemperatureF,Dew PointF,Humidity,Sea Level PressureIn,VisibilityMPH,Wind Direction,Wind SpeedMPH,Gust SpeedMPH,PrecipitationIn,Events,Conditions,WindDirDegrees,DateUTC
12:00 AM,57.9,45.7,64,30.37,-9999.0,South,13.8,20.7,N/A,,Unknown,180,2012-11-13 04:00:00
12:20 AM,57.4,46.8,68,-9999,-9999.0,South,10.4,-,N/A,,Unknown,170,2012-11-13 04:20:00
12:40 AM,57.9,48.2,70,-9999,-9999.0,South,15.0,23.0,N/A,,Unknown,180,2012-11-13 04:40:00
1:00 AM,57.9,48.4,71,30.36,-9999.0,South,15.0,23.0,N/A,,Unknown,180,2012-11-13 05:00:00
1:20 AM,57.9,49.5,73,-9999,-9999.0,South,15.0,20.7,N/A,,Unknown,180,2012-11-13 05:20:00
1:40 AM,58.1,50.5,76,-9999,-9999.0,South,12.7,19.6,N/A,,Unknown,180,2012-11-13 05:40:00
2:00 AM,58.3,51.3,77,30.37,-9999.0,South,17.3,-,N/A,,Unknown,180,2012-11-13 06:00:00
2:20 AM,58.5,51.4,77,-9999,-9999.0,South,13.8,24.2,N/A,,Unknown,180,2012-11-13 06:20:00
2:40 AM,58.6,51.4,77,-9999,-9999.0,South,13.8,21.9,N/A,,Unknown,170,2012-11-13 06:40:00
3:00 AM,57.9,50.4,76,30.35,-9999.0,SSE,13.8,20.7,N/A,,Unknown,160,2012-11-13 07:00:00
3:20 AM,57.7,48.9,72,-9999,-9999.0,South,12.7,-,N/A,,Unknown,170,2012-11-13 07:20:00
3:40 AM,58.5,48.4,69,-9999,-9999.0,SSE,13.8,20.7,N/A,,Unknown,160,2012-11-13 07:40:00
4:00 AM,57.9,47.3,68,30.34,-9999.0,SSE,13.8,-,N/A,,Unknown,160,2012-11-13 08:00:00
4:20 AM,58.3,45.1,62,-9999,-9999.0,South,12.7,19.6,N/A,,Unknown,170,2012-11-13 08:20:00
4:40 AM,58.3,41.7,54,-9999,-9999.0,South,15.0,23.0,N/A,,Unknown,170,2012-11-13 08:40:00
5:00 AM,58.8,39.6,49,30.34,-9999.0,SSE,16.1,23.0,N/A,,Unknown,160,2012-11-13 09:00:00
5:20 AM,58.5,46.4,64,-9999,-9999.0,South,15.0,21.9,N/A,,Unknown,170,2012-11-13 09:20:00
5:40 AM,58.5,48.2,69,-9999,-9999.0,South,15.0,24.2,N/A,,Unknown,180,2012-11-13 09:40:00
6:00 AM,58.6,48.7,70,30.34,-9999.0,South,18.4,25.3,N/A,,Unknown,180,2012-11-13 10:00:00
6:20 AM,58.5,49.1,71,-9999,-9999.0,South,13.8,20.7,N/A,,Unknown,170,2012-11-13 10:20:00
7:00 AM,57.9,49.5,73,30.35,-9999.0,South,15.0,-,N/A,,Unknown,170,2012-11-13 11:00:00
7:20 AM,57.2,49.5,75,-9999,-9999.0,South,9.2,-,N/A,,Unknown,170,2012-11-13 11:20:00
7:40 AM,58.1,51.1,77,-9999,-9999.0,South,11.5,19.6,N/A,,Unknown,180,2012-11-13 11:40:00
8:00 AM,59.2,52.0,77,30.34,-9999.0,South,15.0,21.9,N/A,,Unknown,180,2012-11-13 12:00:00
8:20 AM,59.7,52.0,76,-9999,-9999.0,South,16.1,26.5,N/A,,Unknown,180,2012-11-13 12:20:00
8:40 AM,60.4,52.3,75,-9999,-9999.0,South,15.0,25.3,N/A,,Unknown,180,2012-11-13 12:40:00
9:00 AM,61.3,52.5,73,30.31,-9999.0,South,18.4,28.8,N/A,,Unknown,180,2012-11-13 13:00:00
9:20 AM,62.2,52.9,71,-9999,-9999.0,South,18.4,26.5,N/A,,Unknown,180,2012-11-13 13:20:00
9:40 AM,62.8,53.2,71,-9999,-9999.0,South,19.6,28.8,N/A,,Unknown,180,2012-11-13 13:40:00
10:00 AM,63.3,53.6,71,30.30,-9999.0,South,19.6,26.5,N/A,,Unknown,190,2012-11-13 14:00:00
10:20 AM,63.9,53.4,69,-9999,-9999.0,South,20.7,29.9,N/A,,Unknown,180,2012-11-13 14:20:00
10:40 AM,64.6,53.4,67,-9999,-9999.0,South,20.7,36.8,N/A,,Unknown,190,2012-11-13 14:40:00
11:00 AM,65.5,54.0,66,30.28,-9999.0,South,21.9,27.6,N/A,,Unknown,190,2012-11-13 15:00:00
11:20 AM,65.7,54.0,66,-9999,-9999.0,South,20.7,32.2,N/A,,Unknown,190,2012-11-13 15:20:00
11:40 AM,65.3,53.8,66,-9999,-9999.0,SSW,16.1,23.0,N/A,,Unknown,200,2012-11-13 15:40:00
12:00 PM,65.5,53.6,65,30.26,-9999.0,SSW,21.9,-,N/A,,Unknown,200,2012-11-13 16:00:00
12:20 PM,65.5,53.4,65,-9999,-9999.0,SSW,17.3,25.3,N/A,,Unknown,200,2012-11-13 16:20:00
12:40 PM,67.5,53.4,61,-9999,-9999.0,SSW,18.4,28.8,N/A,,Unknown,200,2012-11-13 16:40:00
1:00 PM,65.5,52.9,64,30.23,-9999.0,SSW,20.7,28.8,N/A,,Unknown,200,2012-11-13 17:00:00
1:20 PM,66.0,53.8,65,-9999,-9999.0,SSW,19.6,29.9,N/A,,Unknown,200,2012-11-13 17:20:00
1:40 PM,64.9,53.6,67,-9999,-9999.0,SSW,19.6,29.9,N/A,,Unknown,200,2012-11-13 17:40:00
2:00 PM,66.2,53.8,64,30.22,-9999.0,SSW,20.7,32.2,N/A,,Unknown,200,2012-11-13 18:00:00
2:20 PM,68.2,53.6,60,-9999,-9999.0,South,20.7,29.9,N/A,,Unknown,190,2012-11-13 18:20:00
2:40 PM,66.9,53.6,62,-9999,-9999.0,South,18.4,28.8,N/A,,Unknown,180,2012-11-13 18:40:00
3:00 PM,65.8,53.4,64,30.21,-9999.0,South,20.7,-,N/A,,Unknown,170,2012-11-13 19:00:00
3:20 PM,65.3,53.6,66,-9999,-9999.0,South,12.7,23.0,N/A,,Unknown,170,2012-11-13 19:20:00
3:40 PM,65.1,54.0,67,-9999,-9999.0,South,18.4,31.1,N/A,,Unknown,170,2012-11-13 19:40:00
4:00 PM,64.8,53.8,68,30.19,-9999.0,South,20.7,34.5,N/A,,Unknown,180,2012-11-13 20:00:00
4:20 PM,64.2,54.3,70,-9999,-9999.0,South,18.4,27.6,N/A,,Unknown,180,2012-11-13 20:20:00
4:40 PM,63.9,54.3,71,-9999,-9999.0,South,19.6,31.1,N/A,,Unknown,180,2012-11-13 20:40:00
5:00 PM,63.7,54.5,72,30.20,-9999.0,South,21.9,-,N/A,,Unknown,180,2012-11-13 21:00:00
5:20 PM,63.3,54.7,73,-9999,-9999.0,South,19.6,28.8,N/A,,Unknown,180,2012-11-13 21:20:00
5:40 PM,63.1,54.7,74,-9999,-9999.0,South,17.3,28.8,N/A,,Unknown,180,2012-11-13 21:40:00
6:00 PM,63.3,54.7,73,30.19,-9999.0,South,20.7,31.1,N/A,,Unknown,170,2012-11-13 22:00:00
6:20 PM,63.5,55.0,74,-9999,-9999.0,South,19.6,29.9,N/A,,Unknown,180,2012-11-13 22:20:00
6:40 PM,63.1,55.0,75,-9999,-9999.0,South,20.7,32.2,N/A,,Unknown,180,2012-11-13 22:40:00
7:00 PM,63.3,55.2,75,30.19,-9999.0,South,20.7,28.8,N/A,,Unknown,180,2012-11-13 23:00:00
7:20 PM,63.7,55.8,75,-9999,-9999.0,South,19.6,33.4,N/A,,Unknown,190,2012-11-13 23:20:00
7:40 PM,63.3,55.6,76,-9999,-9999.0,South,20.7,34.5,N/A,,Unknown,180,2012-11-13 23:40:00
8:00 PM,63.9,55.8,75,30.19,-9999.0,South,23.0,32.2,N/A,,Unknown,190,2012-11-14 00:00:00
8:20 PM,63.7,55.8,75,-9999,-9999.0,South,25.3,36.8,N/A,,Unknown,190,2012-11-14 00:20:00
8:40 PM,63.5,56.1,77,-9999,-9999.0,South,20.7,31.1,N/A,,Unknown,190,2012-11-14 00:40:00
9:00 PM,63.9,56.1,76,30.19,-9999.0,South,25.3,-,N/A,,Unknown,180,2012-11-14 01:00:00
9:20 PM,63.9,56.1,76,-9999,-9999.0,South,19.6,27.6,N/A,,Unknown,180,2012-11-14 01:20:00
9:40 PM,63.7,56.7,78,-9999,-9999.0,South,18.4,31.1,N/A,,Unknown,180,2012-11-14 01:40:00
10:00 PM,62.8,57.4,82,30.19,-9999.0,South,19.6,28.8,N/A,,Unknown,180,2012-11-14 02:00:00
10:20 PM,63.1,57.4,81,-9999,-9999.0,South,19.6,27.6,N/A,,Unknown,180,2012-11-14 02:20:00
10:40 PM,51.6,47.8,87,-9999,-9999.0,West,23.0,29.9,N/A,,Unknown,280,2012-11-14 02:40:00
11:00 PM,50.2,47.5,90,30.26,-9999.0,WNW,23.0,-,N/A,,Unknown,300,2012-11-14 03:00:00
11:20 PM,49.6,47.1,91,-9999,-9999.0,NW,6.9,-,N/A,,Unknown,320,2012-11-14 03:20:00
11:40 PM,48.6,46.4,92,-9999,-9999.0,WNW,15.0,-,N/A,,Unknown,300,2012-11-14 03:40:00